createdAt,value
2023-01-29T00:00:21.622Z,10.10
2023-01-29T00:00:54.287Z,8.90
2023-01-29T00:01:26.951Z,10.50
2023-01-29T00:01:59.693Z,8.70
2023-01-29T00:02:32.354Z,10.00
2023-01-29T00:03:05.101Z,9.70
2023-01-29T00:03:37.747Z,8.80
2023-01-29T00:04:10.424Z,11.50
2023-01-29T00:04:43.104Z,10.50
2023-01-29T00:05:28.463Z,9.90
2023-01-29T00:05:47.871Z,10.10
2023-01-29T00:06:14.049Z,10.30
2023-01-29T00:06:46.744Z,10.10
2023-01-29T00:07:19.568Z,9.80
2023-01-29T00:07:52.230Z,9.00
2023-01-29T00:08:24.900Z,9.90
2023-01-29T00:08:57.572Z,9.50
2023-01-29T00:09:30.247Z,10.50
2023-01-29T00:10:02.923Z,11.10
2023-01-29T00:10:35.593Z,9.60
2023-01-29T00:11:06.688Z,12.00
2023-01-29T00:11:39.355Z,10.90
2023-01-29T00:12:12.045Z,11.20
2023-01-29T00:12:44.710Z,9.40
2023-01-29T00:13:17.380Z,11.30
2023-01-29T00:13:51.076Z,10.80
2023-01-29T00:14:17.256Z,10.70
2023-01-29T00:14:49.923Z,10.60
2023-01-29T00:15:22.598Z,10.60
2023-01-29T00:15:55.275Z,13.40
2023-01-29T00:16:27.940Z,11.00
2023-01-29T00:17:00.670Z,11.50
2023-01-29T00:17:31.714Z,11.80
2023-01-29T00:18:04.407Z,10.40
2023-01-29T00:18:37.056Z,11.20
2023-01-29T00:19:09.720Z,10.20
2023-01-29T00:19:42.388Z,12.20
2023-01-29T00:20:15.463Z,11.90
2023-01-29T00:20:41.915Z,13.30
2023-01-29T00:21:14.606Z,10.30
2023-01-29T00:21:47.280Z,12.30
2023-01-29T00:22:19.949Z,11.10
2023-01-29T00:22:52.623Z,10.70
2023-01-29T00:23:25.332Z,12.20
2023-01-29T00:23:58.080Z,10.30
2023-01-29T00:24:30.794Z,10.40
2023-01-29T00:25:03.433Z,12.60
2023-01-29T00:25:36.108Z,10.90
2023-01-29T00:26:08.781Z,10.00
2023-01-29T00:26:41.465Z,12.10
2023-01-29T00:27:14.131Z,10.40
2023-01-29T00:27:46.795Z,10.30
2023-01-29T00:28:19.461Z,12.10
2023-01-29T00:28:52.132Z,12.60
2023-01-29T00:29:24.804Z,12.20
2023-01-29T00:29:57.483Z,11.20
2023-01-29T00:30:28.578Z,14.10
2023-01-29T00:31:01.346Z,11.70
2023-01-29T00:31:34.107Z,11.60
2023-01-29T00:32:06.914Z,12.60
2023-01-29T00:32:39.634Z,13.10
2023-01-29T00:33:12.353Z,11.40
2023-01-29T00:33:44.989Z,13.30
2023-01-29T00:34:17.660Z,12.80
2023-01-29T00:34:50.322Z,13.00
2023-01-29T00:35:23.000Z,11.80
2023-01-29T00:35:55.657Z,12.70
2023-01-29T00:36:28.336Z,13.60
2023-01-29T00:37:01.004Z,13.20
2023-01-29T00:37:33.672Z,11.40
2023-01-29T00:38:06.345Z,12.90
2023-01-29T00:38:39.014Z,12.40
2023-01-29T00:39:11.678Z,12.50
2023-01-29T00:39:48.090Z,13.90
2023-01-29T00:40:15.125Z,13.00
2023-01-29T00:40:41.663Z,14.00
2023-01-29T00:41:14.338Z,12.80
2023-01-29T00:41:47.073Z,13.00
2023-01-29T00:42:19.726Z,14.00
2023-01-29T00:42:52.403Z,13.30
2023-01-29T00:43:25.088Z,12.70
2023-01-29T00:43:57.763Z,14.70
2023-01-29T00:44:30.418Z,14.10
2023-01-29T00:45:03.095Z,14.80
2023-01-29T00:45:35.766Z,12.70
2023-01-29T00:46:08.445Z,12.10
2023-01-29T00:46:41.224Z,11.90
2023-01-29T00:47:12.239Z,12.80
2023-01-29T00:47:44.911Z,13.90
2023-01-29T00:48:17.604Z,13.80
2023-01-29T00:48:50.339Z,15.20
2023-01-29T00:49:23.012Z,13.10
2023-01-29T00:49:55.697Z,15.30
2023-01-29T00:50:28.379Z,13.30
2023-01-29T00:51:01.049Z,12.60
2023-01-29T00:51:33.728Z,13.90
2023-01-29T00:52:06.441Z,14.00
2023-01-29T00:52:39.106Z,13.80
2023-01-29T00:53:11.781Z,13.80
2023-01-29T00:53:44.482Z,14.90
2023-01-29T00:54:17.140Z,13.50
2023-01-29T00:54:49.809Z,13.80
2023-01-29T00:55:22.479Z,14.60
2023-01-29T00:55:55.154Z,13.80
2023-01-29T00:56:27.828Z,13.00
2023-01-29T00:57:00.522Z,15.10
2023-01-29T00:57:33.196Z,14.90
2023-01-29T00:58:05.874Z,14.90
2023-01-29T00:58:38.545Z,14.60
2023-01-29T00:59:11.226Z,15.10
2023-01-29T00:59:43.895Z,14.80
2023-01-29T01:00:16.992Z,14.20
2023-01-29T01:00:43.433Z,15.00
2023-01-29T01:01:16.225Z,14.90
2023-01-29T01:01:48.983Z,14.20
2023-01-29T01:02:21.748Z,16.00
2023-01-29T01:02:54.465Z,15.30
2023-01-29T01:03:27.159Z,14.30
2023-01-29T01:03:59.898Z,15.80
2023-01-29T01:04:34.957Z,16.20
2023-01-29T01:05:01.199Z,15.40
2023-01-29T01:05:33.879Z,15.10
2023-01-29T01:06:06.565Z,16.00
2023-01-29T01:06:39.235Z,14.70
2023-01-29T01:07:47.067Z,14.40
2023-01-29T01:08:19.739Z,18.90
2023-01-29T01:08:52.412Z,15.40
2023-01-29T01:09:25.083Z,15.40
2023-01-29T01:09:57.765Z,15.70
2023-01-29T01:10:30.465Z,16.50
2023-01-29T01:11:03.123Z,16.30
2023-01-29T01:11:35.803Z,16.60
2023-01-29T01:12:08.498Z,15.80
2023-01-29T01:12:41.171Z,16.10
2023-01-29T01:13:13.834Z,16.10
2023-01-29T01:13:46.505Z,15.90
2023-01-29T01:14:19.176Z,15.90
2023-01-29T01:14:51.861Z,17.40
2023-01-29T01:15:24.540Z,17.50
2023-01-29T01:15:57.226Z,15.90
2023-01-29T01:16:29.980Z,18.60
2023-01-29T01:17:02.672Z,17.00
2023-01-29T01:17:35.343Z,17.60
2023-01-29T01:18:08.043Z,19.90
2023-01-29T01:18:40.704Z,16.60
2023-01-29T01:19:13.362Z,15.80
2023-01-29T01:19:46.035Z,16.90
2023-01-29T01:20:19.096Z,17.70
2023-01-29T01:20:45.356Z,17.30
2023-01-29T01:21:18.040Z,15.60
2023-01-29T01:21:50.713Z,17.40
2023-01-29T01:22:23.374Z,17.50
2023-01-29T01:22:56.064Z,16.80
2023-01-29T01:23:28.739Z,20.20
2023-01-29T01:24:01.414Z,17.80
2023-01-29T01:24:34.079Z,19.90
2023-01-29T01:25:06.749Z,19.30
2023-01-29T01:25:39.420Z,15.70
2023-01-29T01:26:12.090Z,17.20
2023-01-29T01:26:44.748Z,17.10
2023-01-29T01:27:17.438Z,17.50
2023-01-29T01:27:50.109Z,19.40
2023-01-29T01:28:22.777Z,18.40
2023-01-29T01:28:55.445Z,17.60
2023-01-29T01:29:28.109Z,17.90
2023-01-29T01:30:00.790Z,16.70
2023-01-29T01:30:33.457Z,15.90
2023-01-29T01:31:06.230Z,18.20
2023-01-29T01:31:38.999Z,16.00
2023-01-29T01:32:10.041Z,17.40
2023-01-29T01:32:42.708Z,16.80
2023-01-29T01:33:15.384Z,17.30
2023-01-29T01:33:48.080Z,16.30
2023-01-29T01:34:20.745Z,19.40
2023-01-29T01:34:53.408Z,18.40
2023-01-29T01:35:26.085Z,17.60
2023-01-29T01:35:58.751Z,17.30
2023-01-29T01:36:31.426Z,17.70
2023-01-29T01:37:04.109Z,16.30
2023-01-29T01:37:37.411Z,19.30
2023-01-29T01:38:03.569Z,17.60
2023-01-29T01:38:36.241Z,18.60
2023-01-29T01:39:08.909Z,17.80
2023-01-29T01:39:41.582Z,18.30
2023-01-29T01:40:14.512Z,18.30
2023-01-29T01:40:40.922Z,18.40
2023-01-29T01:41:13.592Z,18.40
2023-01-29T01:41:46.290Z,19.20
2023-01-29T01:42:18.966Z,17.80
2023-01-29T01:42:51.634Z,18.60
2023-01-29T01:43:24.318Z,18.70
2023-01-29T01:43:56.989Z,18.60
2023-01-29T01:44:28.082Z,17.60
2023-01-29T01:45:00.752Z,18.30
2023-01-29T01:45:33.501Z,18.40
2023-01-29T01:46:06.243Z,19.30
2023-01-29T01:46:38.924Z,17.80
2023-01-29T01:47:11.630Z,20.00
2023-01-29T01:47:44.291Z,17.20
2023-01-29T01:48:16.963Z,20.20
2023-01-29T01:48:49.630Z,19.80
2023-01-29T01:49:22.341Z,18.30
2023-01-29T01:49:55.006Z,18.90
2023-01-29T01:50:27.692Z,17.40
2023-01-29T01:51:00.358Z,16.80
2023-01-29T01:51:33.028Z,18.80
2023-01-29T01:52:05.724Z,17.50
2023-01-29T01:52:38.399Z,19.40
2023-01-29T01:53:07.173Z,19.60
2023-01-29T01:53:39.855Z,18.60
2023-01-29T01:54:12.529Z,18.00
2023-01-29T01:54:45.219Z,18.40
2023-01-29T01:55:17.892Z,18.40
2023-01-29T01:55:50.577Z,19.50
2023-01-29T01:56:23.245Z,18.50
2023-01-29T01:56:55.941Z,19.60
2023-01-29T01:57:28.609Z,17.40
2023-01-29T01:58:01.278Z,18.70
2023-01-29T01:58:33.941Z,19.10
2023-01-29T01:59:06.622Z,18.60
2023-01-29T01:59:39.286Z,19.50
2023-01-29T02:00:11.990Z,18.90
2023-01-29T02:00:44.693Z,18.00
2023-01-29T02:01:17.390Z,18.30
2023-01-29T02:01:50.211Z,17.90
2023-01-29T02:02:22.944Z,19.70
2023-01-29T02:02:55.643Z,19.10
2023-01-29T02:03:28.318Z,20.00
2023-01-29T02:04:00.988Z,18.60
2023-01-29T02:04:33.659Z,20.20
2023-01-29T02:05:06.313Z,19.50
2023-01-29T02:05:38.977Z,18.20
2023-01-29T02:06:11.638Z,19.40
2023-01-29T02:06:44.345Z,20.50
2023-01-29T02:07:17.002Z,18.40
2023-01-29T02:07:49.679Z,18.30
2023-01-29T02:08:22.409Z,18.50
2023-01-29T02:08:55.085Z,18.90
2023-01-29T02:09:27.741Z,19.70
2023-01-29T02:10:00.410Z,17.50
2023-01-29T02:10:33.082Z,20.50
2023-01-29T02:11:05.743Z,19.30
2023-01-29T02:11:38.415Z,20.10
2023-01-29T02:12:11.104Z,21.20
2023-01-29T02:12:43.766Z,18.50
2023-01-29T02:13:16.441Z,20.00
2023-01-29T02:13:49.114Z,18.90
2023-01-29T02:14:21.808Z,20.00
2023-01-29T02:14:52.896Z,18.40
2023-01-29T02:15:25.588Z,19.20
2023-01-29T02:15:58.251Z,18.70
2023-01-29T02:16:30.933Z,20.40
2023-01-29T02:17:03.697Z,19.30
2023-01-29T02:17:36.373Z,20.20
2023-01-29T02:18:09.058Z,20.20
2023-01-29T02:18:41.733Z,21.00
2023-01-29T02:19:14.393Z,21.50
2023-01-29T02:19:47.167Z,21.80
2023-01-29T02:20:19.818Z,21.80
2023-01-29T02:20:52.500Z,20.30
2023-01-29T02:21:25.252Z,19.00
2023-01-29T02:21:57.928Z,20.00
2023-01-29T02:22:30.618Z,20.10
2023-01-29T02:23:03.823Z,20.50
2023-01-29T02:23:30.049Z,18.90
2023-01-29T02:24:02.819Z,20.20
2023-01-29T02:24:35.538Z,19.50
2023-01-29T02:25:08.207Z,21.00
2023-01-29T02:25:40.874Z,18.10
2023-01-29T02:26:13.544Z,20.90
2023-01-29T02:26:46.235Z,19.40
2023-01-29T02:27:18.924Z,19.30
2023-01-29T02:27:51.588Z,19.20
2023-01-29T02:28:24.264Z,20.10
2023-01-29T02:28:56.937Z,19.90
2023-01-29T02:29:29.624Z,21.30
2023-01-29T02:30:02.300Z,19.00
2023-01-29T02:30:34.975Z,21.90
2023-01-29T02:31:07.707Z,19.90
2023-01-29T02:31:40.458Z,20.40
2023-01-29T02:32:13.127Z,20.80
2023-01-29T02:32:45.799Z,19.80
2023-01-29T02:33:18.463Z,18.90
2023-01-29T02:33:51.145Z,20.30
2023-01-29T02:34:23.799Z,21.70
2023-01-29T02:34:56.497Z,19.90
2023-01-29T02:35:29.150Z,22.00
2023-01-29T02:36:01.814Z,20.80
2023-01-29T02:36:34.481Z,20.60
2023-01-29T02:37:07.166Z,22.40
2023-01-29T02:37:39.942Z,20.80
2023-01-29T02:38:12.592Z,23.10
2023-01-29T02:38:45.264Z,20.70
2023-01-29T02:39:17.941Z,19.40
2023-01-29T02:39:50.592Z,22.00
2023-01-29T02:40:23.251Z,21.20
2023-01-29T02:40:54.378Z,20.60
2023-01-29T02:41:27.020Z,20.60
2023-01-29T02:41:59.706Z,21.10
2023-01-29T02:42:32.376Z,21.30
2023-01-29T02:43:05.038Z,21.80
2023-01-29T02:43:37.713Z,22.40
2023-01-29T02:44:10.380Z,18.40
2023-01-29T02:44:43.040Z,20.90
2023-01-29T02:45:15.712Z,21.40
2023-01-29T02:45:48.428Z,19.70
2023-01-29T02:46:21.120Z,20.50
2023-01-29T02:46:53.799Z,20.80
2023-01-29T02:47:26.470Z,19.80
2023-01-29T02:47:59.157Z,20.20
2023-01-29T02:48:31.826Z,20.90
2023-01-29T02:49:04.495Z,20.30
2023-01-29T02:49:37.161Z,19.80
2023-01-29T02:50:09.860Z,20.60
2023-01-29T02:50:42.513Z,21.00
2023-01-29T02:51:15.181Z,21.30
2023-01-29T02:51:47.873Z,21.00
2023-01-29T02:52:20.546Z,20.10
2023-01-29T02:52:53.213Z,22.50
2023-01-29T02:53:25.899Z,21.50
2023-01-29T02:53:58.586Z,21.50
2023-01-29T02:54:31.240Z,22.10
2023-01-29T02:55:03.929Z,20.90
2023-01-29T02:55:36.604Z,22.10
2023-01-29T02:56:09.261Z,20.20
2023-01-29T02:56:41.928Z,19.50
2023-01-29T02:57:14.612Z,19.90
2023-01-29T02:57:47.272Z,18.90
2023-01-29T02:58:19.946Z,21.10
2023-01-29T02:58:52.615Z,21.30
2023-01-29T02:59:25.297Z,20.40
2023-01-29T02:59:57.963Z,20.90
2023-01-29T03:00:30.638Z,21.30
2023-01-29T03:01:03.318Z,20.10
2023-01-29T03:01:35.972Z,20.60
2023-01-29T03:02:08.695Z,20.30
2023-01-29T03:02:41.351Z,22.40
2023-01-29T03:03:14.022Z,21.80
2023-01-29T03:03:46.703Z,21.80
2023-01-29T03:04:19.369Z,21.40
2023-01-29T03:04:52.047Z,19.80
2023-01-29T03:05:24.727Z,21.10
2023-01-29T03:05:57.367Z,21.00
2023-01-29T03:06:30.045Z,20.80
2023-01-29T03:07:02.742Z,21.00
2023-01-29T03:07:35.396Z,20.90
2023-01-29T03:08:08.069Z,20.60
2023-01-29T03:08:40.743Z,20.90
2023-01-29T03:09:13.416Z,23.20
2023-01-29T03:09:46.089Z,19.70
2023-01-29T03:10:18.913Z,22.50
2023-01-29T03:10:51.621Z,21.20
2023-01-29T03:11:24.288Z,22.90
2023-01-29T03:11:56.974Z,20.80
2023-01-29T03:12:29.644Z,23.10
2023-01-29T03:13:02.314Z,18.70
2023-01-29T03:13:35.006Z,20.40
2023-01-29T03:14:07.731Z,24.10
2023-01-29T03:14:38.822Z,21.30
2023-01-29T03:15:11.508Z,21.40
2023-01-29T03:15:44.174Z,23.20
2023-01-29T03:16:16.869Z,21.00
2023-01-29T03:16:49.563Z,22.40
2023-01-29T03:17:22.280Z,20.70
2023-01-29T03:17:54.943Z,22.00
2023-01-29T03:18:27.636Z,21.40
2023-01-29T03:19:00.296Z,21.60
2023-01-29T03:19:33.022Z,22.30
2023-01-29T03:20:05.706Z,21.60
2023-01-29T03:20:38.411Z,22.80
2023-01-29T03:21:11.059Z,25.90
2023-01-29T03:21:43.751Z,22.40
2023-01-29T03:22:16.440Z,20.80
2023-01-29T03:22:49.137Z,20.00
2023-01-29T03:23:21.823Z,22.40
2023-01-29T03:23:54.555Z,23.10
2023-01-29T03:24:27.319Z,22.10
2023-01-29T03:24:59.963Z,22.60
2023-01-29T03:25:32.641Z,23.00
2023-01-29T03:26:05.319Z,22.20
2023-01-29T03:26:37.996Z,22.70
2023-01-29T03:27:10.701Z,20.60
2023-01-29T03:27:43.366Z,21.80
2023-01-29T03:28:16.035Z,23.10
2023-01-29T03:28:48.731Z,20.80
2023-01-29T03:29:21.380Z,22.60
2023-01-29T03:29:54.055Z,20.50
2023-01-29T03:30:26.738Z,23.50
2023-01-29T03:30:59.509Z,22.60
2023-01-29T03:31:32.299Z,20.90
2023-01-29T03:32:05.167Z,22.40
2023-01-29T03:32:37.798Z,22.20
2023-01-29T03:33:10.472Z,22.90
2023-01-29T03:33:43.159Z,22.70
2023-01-29T03:34:15.818Z,21.80
2023-01-29T03:34:48.495Z,22.50
2023-01-29T03:35:21.155Z,21.00
2023-01-29T03:35:53.856Z,23.40
2023-01-29T03:36:26.490Z,22.70
2023-01-29T03:36:59.192Z,22.50
2023-01-29T03:37:31.857Z,21.50
2023-01-29T03:38:04.526Z,22.40
2023-01-29T03:38:37.200Z,22.70
2023-01-29T03:39:09.866Z,22.90
2023-01-29T03:39:42.541Z,20.70
2023-01-29T03:40:15.687Z,22.90
2023-01-29T03:40:41.953Z,20.30
2023-01-29T03:41:14.626Z,21.00
2023-01-29T03:41:47.311Z,21.60
2023-01-29T03:42:19.996Z,22.90
2023-01-29T03:42:52.655Z,20.20
2023-01-29T03:43:25.359Z,23.80
2023-01-29T03:43:58.004Z,20.60
2023-01-29T03:44:30.679Z,23.60
2023-01-29T03:45:03.351Z,22.90
2023-01-29T03:45:36.090Z,21.40
2023-01-29T03:46:08.818Z,20.80
2023-01-29T03:46:41.530Z,23.20
2023-01-29T03:47:14.194Z,22.30
2023-01-29T03:47:46.868Z,22.80
2023-01-29T03:48:19.541Z,23.20
2023-01-29T03:48:52.212Z,21.80
2023-01-29T03:49:24.875Z,23.70
2023-01-29T03:49:57.545Z,23.70
2023-01-29T03:50:30.216Z,22.60
2023-01-29T03:51:02.884Z,23.30
2023-01-29T03:51:35.571Z,22.30
2023-01-29T03:52:08.237Z,21.70
2023-01-29T03:52:40.909Z,23.60
2023-01-29T03:53:13.586Z,22.10
2023-01-29T03:53:46.240Z,22.30
2023-01-29T03:54:18.917Z,22.50
2023-01-29T03:54:51.580Z,22.70
2023-01-29T03:55:24.238Z,23.10
2023-01-29T03:55:56.912Z,23.80
2023-01-29T03:56:29.600Z,22.40
2023-01-29T03:57:02.277Z,24.20
2023-01-29T03:57:34.956Z,21.60
2023-01-29T03:58:07.624Z,22.10
2023-01-29T03:58:40.308Z,22.70
2023-01-29T03:59:12.962Z,21.60
2023-01-29T03:59:45.632Z,23.50
2023-01-29T04:00:18.545Z,25.00
2023-01-29T04:00:44.906Z,23.50
2023-01-29T04:01:17.600Z,22.40
2023-01-29T04:01:50.289Z,22.60
2023-01-29T04:02:22.955Z,23.80
2023-01-29T04:02:55.662Z,22.70
2023-01-29T04:03:28.317Z,22.80
2023-01-29T04:04:01.016Z,23.90
2023-01-29T04:04:33.660Z,24.40
2023-01-29T04:05:06.325Z,23.00
2023-01-29T04:05:39.007Z,24.90
2023-01-29T04:06:11.681Z,23.60
2023-01-29T04:06:44.364Z,23.10
2023-01-29T04:07:17.045Z,25.10
2023-01-29T04:07:49.707Z,23.00
2023-01-29T04:08:22.377Z,23.80
2023-01-29T04:08:55.055Z,24.00
2023-01-29T04:09:27.744Z,23.60
2023-01-29T04:10:00.405Z,23.60
2023-01-29T04:10:33.080Z,25.10
2023-01-29T04:11:05.761Z,24.50
2023-01-29T04:11:38.423Z,23.40
2023-01-29T04:12:11.105Z,23.80
2023-01-29T04:12:43.778Z,23.10
2023-01-29T04:13:16.437Z,22.70
2023-01-29T04:13:49.107Z,24.80
2023-01-29T04:14:21.775Z,24.20
2023-01-29T04:14:54.449Z,24.50
2023-01-29T04:15:27.111Z,24.70
2023-01-29T04:15:59.783Z,23.10
2023-01-29T04:16:32.534Z,24.60
2023-01-29T04:17:05.217Z,23.70
2023-01-29T04:17:37.881Z,25.50
2023-01-29T04:18:10.559Z,23.00
2023-01-29T04:18:43.217Z,24.30
2023-01-29T04:19:15.895Z,24.00
2023-01-29T04:19:48.557Z,28.40
2023-01-29T04:20:21.244Z,23.90
2023-01-29T04:20:53.912Z,24.90
2023-01-29T04:21:26.579Z,23.70
2023-01-29T04:21:59.274Z,26.40
2023-01-29T04:22:31.954Z,23.10
2023-01-29T04:23:04.618Z,25.10
2023-01-29T04:23:37.293Z,25.90
2023-01-29T04:24:10.015Z,25.50
2023-01-29T04:24:42.670Z,28.00
2023-01-29T04:25:15.352Z,23.20
2023-01-29T04:25:48.037Z,27.30
2023-01-29T04:26:19.111Z,24.90
2023-01-29T04:26:51.803Z,25.90
2023-01-29T04:27:24.461Z,26.20
2023-01-29T04:27:57.146Z,25.20
2023-01-29T04:28:29.808Z,26.90
2023-01-29T04:29:02.495Z,25.40
2023-01-29T04:29:35.163Z,27.10
2023-01-29T04:30:07.828Z,23.70
2023-01-29T04:30:40.515Z,25.90
2023-01-29T04:31:13.419Z,26.90
2023-01-29T04:31:39.823Z,24.80
2023-01-29T04:32:12.560Z,24.00
2023-01-29T04:32:45.213Z,24.50
2023-01-29T04:33:17.887Z,27.10
2023-01-29T04:33:50.558Z,26.00
2023-01-29T04:34:23.232Z,26.30
2023-01-29T04:34:55.913Z,27.70
2023-01-29T04:35:28.591Z,26.00
2023-01-29T04:36:01.245Z,27.50
2023-01-29T04:36:33.922Z,27.00
2023-01-29T04:37:06.608Z,27.00
2023-01-29T04:37:39.277Z,27.20
2023-01-29T04:38:11.950Z,27.30
2023-01-29T04:38:44.667Z,28.30
2023-01-29T04:39:17.320Z,25.50
2023-01-29T04:39:49.988Z,26.20
2023-01-29T04:40:22.673Z,27.40
2023-01-29T04:40:55.359Z,29.90
2023-01-29T04:41:28.008Z,29.20
2023-01-29T04:42:00.702Z,27.50
2023-01-29T04:42:33.376Z,27.90
2023-01-29T04:43:06.040Z,29.40
2023-01-29T04:43:38.711Z,28.40
2023-01-29T04:44:11.407Z,28.50
2023-01-29T04:44:44.054Z,27.40
2023-01-29T04:45:16.740Z,30.60
2023-01-29T04:45:49.403Z,28.20
2023-01-29T04:46:22.060Z,28.90
2023-01-29T04:46:54.755Z,30.10
2023-01-29T04:47:27.466Z,29.50
2023-01-29T04:48:00.182Z,32.20
2023-01-29T04:48:32.854Z,28.50
2023-01-29T04:49:05.519Z,30.70
2023-01-29T04:49:38.183Z,28.00
2023-01-29T04:50:10.847Z,28.90
2023-01-29T04:50:43.519Z,29.10
2023-01-29T04:51:16.206Z,30.40
2023-01-29T04:51:48.907Z,29.40
2023-01-29T04:52:21.563Z,29.40
2023-01-29T04:52:54.242Z,33.40
2023-01-29T04:53:26.913Z,31.70
2023-01-29T04:53:59.584Z,30.00
2023-01-29T04:54:32.252Z,31.60
2023-01-29T04:55:04.930Z,32.10
2023-01-29T04:55:37.597Z,33.90
2023-01-29T04:56:10.271Z,34.50
2023-01-29T04:56:42.940Z,34.80
2023-01-29T04:57:15.630Z,33.60
2023-01-29T04:57:48.306Z,33.40
2023-01-29T04:58:20.977Z,31.30
2023-01-29T04:58:53.642Z,33.40
2023-01-29T04:59:26.308Z,34.20
2023-01-29T04:59:58.996Z,32.40
2023-01-29T05:00:31.652Z,32.90
2023-01-29T05:01:04.312Z,32.20
2023-01-29T05:01:37.030Z,32.70
2023-01-29T05:02:09.696Z,31.20
2023-01-29T05:02:42.436Z,33.40
2023-01-29T05:03:15.080Z,34.70
2023-01-29T05:03:47.828Z,35.40
2023-01-29T05:04:20.473Z,33.10
2023-01-29T05:04:53.164Z,33.30
2023-01-29T05:05:25.826Z,33.80
2023-01-29T05:05:58.497Z,35.10
2023-01-29T05:06:31.167Z,34.10
2023-01-29T05:07:03.873Z,32.60
2023-01-29T05:07:36.525Z,33.60
2023-01-29T05:08:09.206Z,35.60
2023-01-29T05:08:41.866Z,35.80
2023-01-29T05:09:14.539Z,34.90
2023-01-29T05:09:47.204Z,36.90
2023-01-29T05:10:20.205Z,34.10
2023-01-29T05:10:46.414Z,34.50
2023-01-29T05:11:19.093Z,35.90
2023-01-29T05:11:51.774Z,32.20
2023-01-29T05:12:24.444Z,34.10
2023-01-29T05:12:57.106Z,34.70
2023-01-29T05:13:29.789Z,33.70
2023-01-29T05:14:02.438Z,34.20
2023-01-29T05:14:35.109Z,34.30
2023-01-29T05:15:07.781Z,34.40
2023-01-29T05:15:40.453Z,35.80
2023-01-29T05:16:13.227Z,36.40
2023-01-29T05:16:45.944Z,33.50
2023-01-29T05:17:18.621Z,32.70
2023-01-29T05:17:51.285Z,33.50
2023-01-29T05:18:23.996Z,34.90
2023-01-29T05:18:56.665Z,35.30
2023-01-29T05:19:29.363Z,34.60
2023-01-29T05:20:02.039Z,35.10
2023-01-29T05:20:34.711Z,38.00
2023-01-29T05:21:07.396Z,32.50
2023-01-29T05:21:41.162Z,31.30
2023-01-29T05:22:07.428Z,34.70
2023-01-29T05:22:40.086Z,33.80
2023-01-29T05:23:12.756Z,35.60
2023-01-29T05:23:45.418Z,35.40
2023-01-29T05:24:18.101Z,33.30
2023-01-29T05:24:50.800Z,37.70
2023-01-29T05:25:23.462Z,35.50
2023-01-29T05:25:56.126Z,33.70
2023-01-29T05:26:28.798Z,35.90
2023-01-29T05:27:01.487Z,35.60
2023-01-29T05:27:34.151Z,36.00
2023-01-29T05:28:06.823Z,35.30
2023-01-29T05:28:39.515Z,31.00
2023-01-29T05:29:12.205Z,32.90
2023-01-29T05:29:44.857Z,35.10
2023-01-29T05:30:17.919Z,32.40
2023-01-29T05:30:44.317Z,34.70
2023-01-29T05:31:17.156Z,32.60
2023-01-29T05:31:49.882Z,36.20
2023-01-29T05:32:22.558Z,36.80
2023-01-29T05:32:55.241Z,36.70
2023-01-29T05:33:27.917Z,33.10
2023-01-29T05:34:00.586Z,36.50
2023-01-29T05:34:33.271Z,37.00
2023-01-29T05:35:05.939Z,35.20
2023-01-29T05:35:38.610Z,34.40
2023-01-29T05:36:11.279Z,33.00
2023-01-29T05:36:43.966Z,37.50
2023-01-29T05:37:16.639Z,38.20
2023-01-29T05:37:49.310Z,39.00
2023-01-29T05:38:21.987Z,32.90
2023-01-29T05:38:54.652Z,36.40
2023-01-29T05:39:27.320Z,33.00
2023-01-29T05:39:59.982Z,32.90
2023-01-29T05:40:32.651Z,33.30
2023-01-29T05:41:05.332Z,32.80
2023-01-29T05:41:37.995Z,34.10
2023-01-29T05:42:10.674Z,32.30
2023-01-29T05:42:43.345Z,32.10
2023-01-29T05:43:14.441Z,33.20
2023-01-29T05:43:47.105Z,34.90
2023-01-29T05:44:19.799Z,32.40
2023-01-29T05:44:52.534Z,35.90
2023-01-29T05:45:25.208Z,31.10
2023-01-29T05:45:57.874Z,36.60
2023-01-29T05:46:30.645Z,35.50
2023-01-29T05:47:03.329Z,34.70
2023-01-29T05:47:36.009Z,33.60
2023-01-29T05:48:08.674Z,34.50
2023-01-29T05:48:41.389Z,34.20
2023-01-29T05:49:14.071Z,36.30
2023-01-29T05:49:46.740Z,34.60
2023-01-29T05:50:19.512Z,33.70
2023-01-29T05:50:52.185Z,34.40
2023-01-29T05:51:24.852Z,33.30
2023-01-29T05:51:57.533Z,37.10
2023-01-29T05:52:30.212Z,33.50
2023-01-29T05:53:02.896Z,35.30
2023-01-29T05:53:35.560Z,37.30
2023-01-29T05:54:08.229Z,34.10
2023-01-29T05:54:40.940Z,34.80
2023-01-29T05:55:13.588Z,34.60
2023-01-29T05:55:46.253Z,37.50
2023-01-29T05:56:18.938Z,37.10
2023-01-29T05:56:51.628Z,35.30
2023-01-29T05:57:24.326Z,37.40
2023-01-29T05:57:57.022Z,38.00
2023-01-29T05:58:29.694Z,36.30
2023-01-29T05:59:02.942Z,34.60
2023-01-29T05:59:29.127Z,33.00
2023-01-29T06:00:02.804Z,36.10
2023-01-29T06:00:28.987Z,36.00
2023-01-29T06:01:01.665Z,36.30
2023-01-29T06:01:34.392Z,34.60
2023-01-29T06:02:07.133Z,36.10
2023-01-29T06:02:39.893Z,37.20
2023-01-29T06:03:12.658Z,36.90
2023-01-29T06:03:45.340Z,37.30
2023-01-29T06:04:18.027Z,36.00
2023-01-29T06:04:50.685Z,37.40
2023-01-29T06:05:23.372Z,34.10
2023-01-29T06:05:56.032Z,32.90
2023-01-29T06:06:28.719Z,33.30
2023-01-29T06:07:01.403Z,36.60
2023-01-29T06:07:34.074Z,35.70
2023-01-29T06:08:06.751Z,36.10
2023-01-29T06:08:39.414Z,36.30
2023-01-29T06:09:12.096Z,32.30
2023-01-29T06:09:44.755Z,35.50
2023-01-29T06:10:17.909Z,36.10
2023-01-29T06:10:44.278Z,33.80
2023-01-29T06:11:16.952Z,35.60
2023-01-29T06:11:49.623Z,34.20
2023-01-29T06:12:22.299Z,35.80
2023-01-29T06:12:54.968Z,35.60
2023-01-29T06:13:27.641Z,34.60
2023-01-29T06:14:00.354Z,34.60
2023-01-29T06:14:32.997Z,36.40
2023-01-29T06:15:05.663Z,34.90
2023-01-29T06:15:38.321Z,35.20
2023-01-29T06:16:11.033Z,34.70
2023-01-29T06:16:43.715Z,38.40
2023-01-29T06:17:16.400Z,35.30
2023-01-29T06:17:49.058Z,37.10
2023-01-29T06:18:21.717Z,36.60
2023-01-29T06:18:54.381Z,34.50
2023-01-29T06:19:27.185Z,38.00
2023-01-29T06:19:59.854Z,39.00
2023-01-29T06:20:32.530Z,38.50
2023-01-29T06:21:05.198Z,38.10
2023-01-29T06:21:37.863Z,37.70
2023-01-29T06:22:10.544Z,36.50
2023-01-29T06:22:43.224Z,37.80
2023-01-29T06:23:15.915Z,36.00
2023-01-29T06:23:48.594Z,38.50
2023-01-29T06:24:21.351Z,39.60
2023-01-29T06:24:54.086Z,38.40
2023-01-29T06:25:26.756Z,36.70
2023-01-29T06:25:59.427Z,38.00
2023-01-29T06:26:32.092Z,37.60
2023-01-29T06:27:04.786Z,39.70
2023-01-29T06:27:37.457Z,36.70
2023-01-29T06:28:10.121Z,39.00
2023-01-29T06:28:42.789Z,40.20
2023-01-29T06:29:15.457Z,38.20
2023-01-29T06:29:48.125Z,35.60
2023-01-29T06:30:20.785Z,35.80
2023-01-29T06:30:53.504Z,40.80
2023-01-29T06:31:38.277Z,39.70
2023-01-29T06:31:58.438Z,40.90
2023-01-29T06:32:24.766Z,38.10
2023-01-29T06:32:57.417Z,38.70
2023-01-29T06:33:30.087Z,36.50
2023-01-29T06:34:02.767Z,37.40
2023-01-29T06:34:35.439Z,38.40
2023-01-29T06:35:08.094Z,37.10
2023-01-29T06:35:40.784Z,35.50
2023-01-29T06:36:13.441Z,38.60
2023-01-29T06:36:46.121Z,39.20
2023-01-29T06:37:18.801Z,38.20
2023-01-29T06:37:51.452Z,38.30
2023-01-29T06:38:24.122Z,35.10
2023-01-29T06:38:56.797Z,38.60
2023-01-29T06:39:29.469Z,40.00
2023-01-29T06:40:02.134Z,38.40
2023-01-29T06:40:34.817Z,38.10
2023-01-29T06:41:07.479Z,37.20
2023-01-29T06:41:40.145Z,39.70
2023-01-29T06:42:12.828Z,38.30
2023-01-29T06:42:46.215Z,39.30
2023-01-29T06:43:12.399Z,38.80
2023-01-29T06:43:45.067Z,35.80
2023-01-29T06:44:17.745Z,37.10
2023-01-29T06:44:50.404Z,40.00
2023-01-29T06:45:23.129Z,39.10
2023-01-29T06:45:55.801Z,40.10
2023-01-29T06:46:28.469Z,37.90
2023-01-29T06:47:01.159Z,37.80
2023-01-29T06:47:33.837Z,40.60
2023-01-29T06:48:06.511Z,38.20
2023-01-29T06:48:39.176Z,37.50
2023-01-29T06:49:10.274Z,41.50
2023-01-29T06:49:42.937Z,39.50
2023-01-29T06:50:15.977Z,39.00
2023-01-29T06:50:42.323Z,38.10
2023-01-29T06:51:14.961Z,43.20
2023-01-29T06:51:47.652Z,38.70
2023-01-29T06:52:20.349Z,39.70
2023-01-29T06:52:52.996Z,41.40
2023-01-29T06:53:25.684Z,38.30
2023-01-29T06:53:58.348Z,37.80
2023-01-29T06:54:31.035Z,38.00
2023-01-29T06:55:03.691Z,37.10
2023-01-29T06:55:34.783Z,39.90
2023-01-29T06:56:07.467Z,38.90
2023-01-29T06:56:40.111Z,38.40
2023-01-29T06:57:12.804Z,37.10
2023-01-29T06:57:45.489Z,38.90
2023-01-29T06:58:18.146Z,41.10
2023-01-29T06:58:50.827Z,39.20
2023-01-29T06:59:23.490Z,41.90